Big Flats, Wisconsin
Current Conditions -  °F | °C
As of 5:58 PM on Friday 21 Nov 2014 (Local Time) from KVOK Reporting Station
Overcast Overcast  
Wind Chill: 18°   Ceiling: 17000
Heat Index: 27°   Visibility: 10mi
Dew Point:   Wind: 10mph
Humidity: 47%   Direction: 160°SSE
Pressure: 30.14"   Gusts: 18mph
Location:  44.0724°N, 89.9031°W
Report Text: KVOK 212358Z AUTO 16009G16KT 10SM OVC170 M03/M13 A3014 RMK AO2 SLP229 T10261126 11011 21037 57017
Loading
Personal Weather Stations






























Interactive Weather Map New forecast layout! Learn more

10-Day Weather Forecast

Advertisements
Track Severe Weather on mobile